createdAt,value
2022-12-25T00:01:15.125Z,79.21
2022-12-25T00:11:23.445Z,79.07
2022-12-25T00:21:25.709Z,80.56
2022-12-25T00:31:28.087Z,79.57
2022-12-25T00:41:48.677Z,81.35
2022-12-25T00:51:51.455Z,81.34
2022-12-25T01:01:53.817Z,81.60
2022-12-25T01:11:56.168Z,82.79
2022-12-25T01:21:58.330Z,83.16
2022-12-25T01:32:00.604Z,83.91
2022-12-25T01:42:03.030Z,84.89
2022-12-25T01:52:12.010Z,83.96
2022-12-25T02:02:14.985Z,84.85
2022-12-25T02:12:30.235Z,84.76
2022-12-25T02:22:51.482Z,85.36
2022-12-25T02:33:19.281Z,84.75
2022-12-25T02:43:46.023Z,84.51
2022-12-25T02:54:10.252Z,86.14
2022-12-25T03:04:35.553Z,86.75
2022-12-25T03:14:57.751Z,86.47
2022-12-25T03:25:19.383Z,86.96
2022-12-25T03:35:46.018Z,86.67
2022-12-25T03:46:05.400Z,86.57
2022-12-25T03:56:26.963Z,87.48
2022-12-25T04:06:47.569Z,86.83
2022-12-25T04:17:08.537Z,86.44
2022-12-25T04:27:29.368Z,86.96
2022-12-25T04:37:31.567Z,87.00
2022-12-25T04:47:33.840Z,86.50
2022-12-25T04:57:36.790Z,86.20
2022-12-25T05:07:38.980Z,86.00
2022-12-25T05:17:41.142Z,85.29
2022-12-25T05:27:46.467Z,86.10
2022-12-25T05:37:50.920Z,86.29
2022-12-25T05:47:53.371Z,86.08
2022-12-25T05:57:55.543Z,86.80
2022-12-25T06:07:57.795Z,85.85
2022-12-25T06:18:01.674Z,85.79
2022-12-25T06:28:04.064Z,86.10
2022-12-25T06:38:06.270Z,85.46
2022-12-25T06:48:08.469Z,86.13
2022-12-25T06:58:10.699Z,85.65
2022-12-25T07:08:13.386Z,85.59
2022-12-25T07:18:15.558Z,85.83
2022-12-25T07:28:17.744Z,86.30
2022-12-25T07:38:20.055Z,86.06
2022-12-25T07:48:22.282Z,86.76
2022-12-25T07:58:24.633Z,85.72
2022-12-25T08:08:26.805Z,87.16
2022-12-25T08:18:32.533Z,86.13
2022-12-25T08:28:35.780Z,86.81
2022-12-25T08:38:39.057Z,85.85
2022-12-25T08:48:45.958Z,85.80
2022-12-25T08:58:48.229Z,86.25
2022-12-25T09:08:50.609Z,87.00
2022-12-25T10:35:47.674Z,94.81
2022-12-25T10:45:50.048Z,92.90
2022-12-25T10:56:03.333Z,91.52
2022-12-25T11:06:07.767Z,91.72
2022-12-25T11:16:14.480Z,90.12
2022-12-25T11:26:18.469Z,88.22
2022-12-25T11:36:42.248Z,86.45
2022-12-25T11:46:47.970Z,85.52
2022-12-25T11:56:50.501Z,85.45
2022-12-25T12:07:00.658Z,85.85
2022-12-25T12:17:03.031Z,86.07
2022-12-25T12:27:18.341Z,87.31
2022-12-25T12:37:29.334Z,87.46
2022-12-25T12:47:44.874Z,88.01
2022-12-25T12:58:01.697Z,87.88
2022-12-25T13:08:12.759Z,87.53
2022-12-25T13:18:15.247Z,85.99
2022-12-25T13:28:17.398Z,85.91
2022-12-25T13:38:19.916Z,84.79
2022-12-25T13:48:23.366Z,85.20
2022-12-25T13:58:31.501Z,85.22
2022-12-25T14:08:35.974Z,84.43
2022-12-25T14:18:38.163Z,84.53
2022-12-25T14:28:40.411Z,84.26
2022-12-25T14:38:44.271Z,83.82
2022-12-25T14:48:46.533Z,84.47
2022-12-25T14:58:52.723Z,83.96
2022-12-25T15:09:03.062Z,84.46
2022-12-25T15:19:07.609Z,84.72
2022-12-25T15:29:10.752Z,84.82
2022-12-25T15:39:13.144Z,84.65
2022-12-25T15:49:16.414Z,84.82
2022-12-25T15:59:19.916Z,84.54
2022-12-25T16:09:22.212Z,85.05
2022-12-25T16:19:24.447Z,85.12
2022-12-25T16:29:26.757Z,84.51
2022-12-25T16:39:29.135Z,83.95
2022-12-25T16:49:31.618Z,83.74
2022-12-25T16:59:34.755Z,79.15
2022-12-25T17:09:43.721Z,78.79
2022-12-25T17:19:46.581Z,79.11
2022-12-25T17:29:48.779Z,76.82
2022-12-25T17:39:50.969Z,74.61
2022-12-25T17:49:53.160Z,73.08
2022-12-25T17:59:55.408Z,71.88
2022-12-25T18:09:57.641Z,69.97
2022-12-25T18:19:59.820Z,68.93
2022-12-25T18:30:02.354Z,67.77
2022-12-25T18:40:05.451Z,67.83
2022-12-25T18:50:08.818Z,68.45
2022-12-25T19:00:11.285Z,69.62
2022-12-25T19:10:13.543Z,70.97
2022-12-25T19:20:15.794Z,70.16
2022-12-25T19:30:18.431Z,68.29
2022-12-25T19:40:20.724Z,67.68
2022-12-25T19:50:28.429Z,69.42
2022-12-25T20:00:31.171Z,70.44
2022-12-25T20:10:33.383Z,70.53
2022-12-25T20:20:35.770Z,71.69
2022-12-25T20:30:39.649Z,72.11
2022-12-25T20:41:24.625Z,70.92
2022-12-25T20:51:08.803Z,71.04
2022-12-25T21:01:15.518Z,70.16
2022-12-25T21:11:18.292Z,70.15
2022-12-25T21:21:22.066Z,69.69
2022-12-25T21:40:16.196Z,69.03
2022-12-25T21:50:39.469Z,69.89
2022-12-25T22:00:41.840Z,70.92
2022-12-25T22:10:44.104Z,72.43
2022-12-25T22:20:46.306Z,72.21
2022-12-25T22:30:48.504Z,71.37
2022-12-25T22:40:50.889Z,70.88
2022-12-25T22:50:53.104Z,70.54
2022-12-25T23:00:55.292Z,69.51
2022-12-25T23:11:05.302Z,69.67
2022-12-25T23:21:26.096Z,69.84
2022-12-25T23:31:38.101Z,70.79
2022-12-25T23:41:42.106Z,71.35
2022-12-25T23:51:46.132Z,73.11
